ePrivacy and GPDR Cookie Consent by Cookie Consent
EmailTwitter


Observations de surface / France / LFBO (07630)

Régions: Québec | Canada | États-Unis | Europe | France | UK | Ailleurs
Station
Affichage
Infos & localisation pour LFBO (07630) | Aide pour décoder les METARs

Observations prises le 2023-02-05 à 16H30 UTC à TOULOUSE/BLAGNAC, FR (LFBO)

Etat du ciel: couvert.

Température: 9.0 Celsius

Point de rosée: 5.0 Celsius

Humidité relative: 76%

Facteur vent 6.

Vents: Ouest-nord-ouest à 19 km/h ou 10 noeuds.

Pression au niveau moyen de la mer: 103.60 kilopascals.

Visibilité horizontale: 6.21 milles terrestres ou 9.94 kilomètres.

Hauteur du plafond: 1311 mètres ( 4300 pieds ).

Observation METAR:

LFBO 051630Z AUTO 29010KT 9999 FEW019 OVC043 09/05 Q1036 NOSIG=